sensor_id;sensor_type;location;lat;lon;timestamp;pressure;altitude;pressure_sealevel;temperature;humidity
46642;BME280;32370;41.864;-88.124;2023-04-09T00:01:35;99975.13;;;13.46;27.42
46642;BME280;32370;41.864;-88.124;2023-04-09T00:04:03;99976.01;;;13.22;27.33
46642;BME280;32370;41.864;-88.124;2023-04-09T00:06:30;99971.70;;;13.02;27.75
46642;BME280;32370;41.864;-88.124;2023-04-09T00:08:58;99973.01;;;13.22;27.89
46642;BME280;32370;41.864;-88.124;2023-04-09T00:11:26;99972.59;;;13.21;27.89
46642;BME280;32370;41.864;-88.124;2023-04-09T00:13:54;99973.28;;;13.16;27.89
46642;BME280;32370;41.864;-88.124;2023-04-09T00:16:22;99969.84;;;12.43;27.78
46642;BME280;32370;41.864;-88.124;2023-04-09T00:18:49;99970.27;;;12.99;27.93
46642;BME280;32370;41.864;-88.124;2023-04-09T00:21:17;99969.88;;;12.73;27.91
46642;BME280;32370;41.864;-88.124;2023-04-09T00:23:45;99970.50;;;12.46;28.37
46642;BME280;32370;41.864;-88.124;2023-04-09T00:26:14;99969.98;;;12.40;28.35
46642;BME280;32370;41.864;-88.124;2023-04-09T00:28:41;99966.26;;;12.50;28.49
46642;BME280;32370;41.864;-88.124;2023-04-09T00:31:09;99966.34;;;12.25;28.66
46642;BME280;32370;41.864;-88.124;2023-04-09T00:33:37;99970.09;;;12.37;28.95
46642;BME280;32370;41.864;-88.124;2023-04-09T00:36:05;99967.93;;;12.42;28.79
46642;BME280;32370;41.864;-88.124;2023-04-09T00:38:32;99966.16;;;12.29;29.14
46642;BME280;32370;41.864;-88.124;2023-04-09T00:41:00;99965.98;;;12.43;29.34
46642;BME280;32370;41.864;-88.124;2023-04-09T00:43:28;99967.20;;;12.01;29.32
46642;BME280;32370;41.864;-88.124;2023-04-09T00:45:56;99966.52;;;12.37;30.11
46642;BME280;32370;41.864;-88.124;2023-04-09T00:48:25;99966.02;;;12.54;29.56
46642;BME280;32370;41.864;-88.124;2023-04-09T00:50:53;99968.77;;;12.22;29.59
46642;BME280;32370;41.864;-88.124;2023-04-09T00:53:21;99968.23;;;12.29;30.43
46642;BME280;32370;41.864;-88.124;2023-04-09T00:55:49;99971.72;;;12.34;30.50
46642;BME280;32370;41.864;-88.124;2023-04-09T00:58:17;99974.26;;;12.18;30.64
46642;BME280;32370;41.864;-88.124;2023-04-09T01:00:44;99972.04;;;12.35;31.07
46642;BME280;32370;41.864;-88.124;2023-04-09T01:03:12;99973.96;;;12.05;31.02
46642;BME280;32370;41.864;-88.124;2023-04-09T01:05:46;99976.43;;;12.05;30.65
46642;BME280;32370;41.864;-88.124;2023-04-09T01:08:21;99970.75;;;11.96;31.27
46642;BME280;32370;41.864;-88.124;2023-04-09T01:10:57;99972.52;;;12.06;31.47
46642;BME280;32370;41.864;-88.124;2023-04-09T01:13:32;99972.82;;;12.26;31.28
46642;BME280;32370;41.864;-88.124;2023-04-09T01:16:02;99970.43;;;11.99;31.64
46642;BME280;32370;41.864;-88.124;2023-04-09T01:18:37;99969.75;;;12.19;31.58
46642;BME280;32370;41.864;-88.124;2023-04-09T01:21:12;99965.62;;;11.90;32.39
46642;BME280;32370;41.864;-88.124;2023-04-09T01:23:46;99965.80;;;11.89;32.10
46642;BME280;32370;41.864;-88.124;2023-04-09T01:26:34;99967.89;;;11.61;32.08
46642;BME280;32370;41.864;-88.124;2023-04-09T01:29:05;99965.33;;;11.98;32.40
46642;BME280;32370;41.864;-88.124;2023-04-09T01:31:37;99966.40;;;11.70;33.01
46642;BME280;32370;41.864;-88.124;2023-04-09T01:34:06;99967.75;;;11.75;33.05
46642;BME280;32370;41.864;-88.124;2023-04-09T01:36:35;99969.46;;;11.79;32.79
46642;BME280;32370;41.864;-88.124;2023-04-09T01:39:05;99972.45;;;11.80;33.14
46642;BME280;32370;41.864;-88.124;2023-04-09T01:41:35;99976.93;;;11.33;33.41
46642;BME280;32370;41.864;-88.124;2023-04-09T01:44:05;99983.08;;;11.36;33.32
46642;BME280;32370;41.864;-88.124;2023-04-09T01:46:36;99984.42;;;11.03;33.95
46642;BME280;32370;41.864;-88.124;2023-04-09T01:49:06;99987.95;;;11.28;34.34
46642;BME280;32370;41.864;-88.124;2023-04-09T01:51:34;99989.14;;;10.59;34.39
46642;BME280;32370;41.864;-88.124;2023-04-09T01:54:03;99990.98;;;10.82;34.25
46642;BME280;32370;41.864;-88.124;2023-04-09T01:56:40;99994.62;;;10.59;34.76
46642;BME280;32370;41.864;-88.124;2023-04-09T01:59:08;100000.43;;;10.53;35.03
46642;BME280;32370;41.864;-88.124;2023-04-09T02:01:40;100005.39;;;10.54;35.01
46642;BME280;32370;41.864;-88.124;2023-04-09T02:04:16;100007.39;;;9.91;35.29
46642;BME280;32370;41.864;-88.124;2023-04-09T02:06:52;100009.76;;;10.27;35.51
46642;BME280;32370;41.864;-88.124;2023-04-09T02:09:23;100010.04;;;10.14;35.90
46642;BME280;32370;41.864;-88.124;2023-04-09T02:11:54;100012.20;;;10.12;35.73
46642;BME280;32370;41.864;-88.124;2023-04-09T02:14:25;100017.47;;;10.03;35.73
46642;BME280;32370;41.864;-88.124;2023-04-09T02:16:53;100017.21;;;9.96;35.94
46642;BME280;32370;41.864;-88.124;2023-04-09T02:19:22;100020.93;;;9.89;36.03
46642;BME280;32370;41.864;-88.124;2023-04-09T02:21:50;100023.90;;;9.96;36.52
46642;BME280;32370;41.864;-88.124;2023-04-09T02:24:18;100025.02;;;9.93;36.38
46642;BME280;32370;41.864;-88.124;2023-04-09T02:26:47;100031.66;;;10.09;36.61
46642;BME280;32370;41.864;-88.124;2023-04-09T02:29:14;100032.09;;;9.84;36.84
46642;BME280;32370;41.864;-88.124;2023-04-09T02:31:42;100033.78;;;9.49;36.48
46642;BME280;32370;41.864;-88.124;2023-04-09T02:34:10;100031.98;;;9.63;36.56
46642;BME280;32370;41.864;-88.124;2023-04-09T02:36:38;100031.82;;;9.56;36.89
46642;BME280;32370;41.864;-88.124;2023-04-09T02:39:06;100029.12;;;9.44;36.94
46642;BME280;32370;41.864;-88.124;2023-04-09T02:41:34;100029.90;;;9.42;36.92
46642;BME280;32370;41.864;-88.124;2023-04-09T02:44:01;100028.24;;;9.38;36.97
46642;BME280;32370;41.864;-88.124;2023-04-09T02:46:29;100033.35;;;9.43;37.50
46642;BME280;32370;41.864;-88.124;2023-04-09T02:48:57;100031.72;;;9.35;38.35
46642;BME280;32370;41.864;-88.124;2023-04-09T02:51:25;100033.97;;;9.64;38.50
46642;BME280;32370;41.864;-88.124;2023-04-09T02:53:53;100035.26;;;9.28;38.63
46642;BME280;32370;41.864;-88.124;2023-04-09T02:56:21;100029.73;;;9.13;38.74
46642;BME280;32370;41.864;-88.124;2023-04-09T02:58:48;100033.17;;;8.77;38.29
46642;BME280;32370;41.864;-88.124;2023-04-09T03:01:16;100031.44;;;8.93;38.47
46642;BME280;32370;41.864;-88.124;2023-04-09T03:03:44;100031.83;;;8.54;38.74
46642;BME280;32370;41.864;-88.124;2023-04-09T03:06:12;100031.13;;;8.60;39.19
46642;BME280;32370;41.864;-88.124;2023-04-09T03:08:40;100030.75;;;8.72;39.96
46642;BME280;32370;41.864;-88.124;2023-04-09T03:11:10;100028.91;;;8.79;39.63
46642;BME280;32370;41.864;-88.124;2023-04-09T03:13:38;100028.88;;;8.85;39.94
46642;BME280;32370;41.864;-88.124;2023-04-09T03:16:06;100026.95;;;8.78;39.63
46642;BME280;32370;41.864;-88.124;2023-04-09T03:18:34;100027.52;;;8.96;39.86
46642;BME280;32370;41.864;-88.124;2023-04-09T03:21:04;100027.37;;;8.82;39.96
46642;BME280;32370;41.864;-88.124;2023-04-09T03:23:32;100024.53;;;8.49;40.15
46642;BME280;32370;41.864;-88.124;2023-04-09T03:26:01;100025.29;;;8.38;40.34
46642;BME280;32370;41.864;-88.124;2023-04-09T03:28:31;100025.90;;;8.59;40.43
46642;BME280;32370;41.864;-88.124;2023-04-09T03:30:59;100026.30;;;8.54;40.63
46642;BME280;32370;41.864;-88.124;2023-04-09T03:33:27;100025.07;;;8.61;40.90
46642;BME280;32370;41.864;-88.124;2023-04-09T03:35:55;100023.61;;;8.45;41.48
46642;BME280;32370;41.864;-88.124;2023-04-09T03:38:23;100022.58;;;8.44;41.05
46642;BME280;32370;41.864;-88.124;2023-04-09T03:40:51;100018.11;;;8.07;41.19
46642;BME280;32370;41.864;-88.124;2023-04-09T03:43:18;100013.88;;;8.25;41.44
46642;BME280;32370;41.864;-88.124;2023-04-09T03:45:46;100014.68;;;8.17;41.50
46642;BME280;32370;41.864;-88.124;2023-04-09T03:48:14;100017.01;;;8.20;41.35
46642;BME280;32370;41.864;-88.124;2023-04-09T03:50:42;100016.67;;;8.07;41.58
46642;BME280;32370;41.864;-88.124;2023-04-09T03:53:10;100016.02;;;8.08;41.72
46642;BME280;32370;41.864;-88.124;2023-04-09T03:55:38;100016.75;;;7.99;41.70
46642;BME280;32370;41.864;-88.124;2023-04-09T03:58:06;100017.32;;;7.93;41.92
46642;BME280;32370;41.864;-88.124;2023-04-09T04:00:33;100018.82;;;8.10;41.89
46642;BME280;32370;41.864;-88.124;2023-04-09T04:03:01;100017.90;;;7.83;42.05
46642;BME280;32370;41.864;-88.124;2023-04-09T04:05:29;100015.48;;;7.69;42.25
46642;BME280;32370;41.864;-88.124;2023-04-09T04:07:58;100012.20;;;7.56;42.22
46642;BME280;32370;41.864;-88.124;2023-04-09T04:10:26;100012.55;;;7.65;42.14
46642;BME280;32370;41.864;-88.124;2023-04-09T04:12:54;100011.41;;;7.43;43.21
46642;BME280;32370;41.864;-88.124;2023-04-09T04:15:21;100012.02;;;7.41;43.47
46642;BME280;32370;41.864;-88.124;2023-04-09T04:17:49;100012.09;;;7.83;43.78
46642;BME280;32370;41.864;-88.124;2023-04-09T04:20:18;100010.06;;;7.15;44.46
46642;BME280;32370;41.864;-88.124;2023-04-09T04:22:46;100011.94;;;6.94;45.28
46642;BME280;32370;41.864;-88.124;2023-04-09T04:25:14;100014.34;;;7.16;46.78
46642;BME280;32370;41.864;-88.124;2023-04-09T04:27:42;100014.07;;;7.38;46.38
46642;BME280;32370;41.864;-88.124;2023-04-09T04:30:12;100014.47;;;7.12;47.72
46642;BME280;32370;41.864;-88.124;2023-04-09T04:32:39;100016.71;;;6.94;48.62
46642;BME280;32370;41.864;-88.124;2023-04-09T04:35:08;100019.76;;;6.94;47.68
46642;BME280;32370;41.864;-88.124;2023-04-09T04:37:36;100017.48;;;6.80;47.50
46642;BME280;32370;41.864;-88.124;2023-04-09T04:40:05;100017.15;;;6.61;49.12
46642;BME280;32370;41.864;-88.124;2023-04-09T04:42:33;100018.36;;;6.06;49.51
46642;BME280;32370;41.864;-88.124;2023-04-09T04:45:00;100020.28;;;5.84;50.65
46642;BME280;32370;41.864;-88.124;2023-04-09T04:47:28;100021.44;;;5.96;49.93
46642;BME280;32370;41.864;-88.124;2023-04-09T04:49:56;100023.71;;;6.76;48.92
46642;BME280;32370;41.864;-88.124;2023-04-09T04:52:24;100024.06;;;6.27;49.87
46642;BME280;32370;41.864;-88.124;2023-04-09T04:54:52;100026.31;;;6.37;50.16
46642;BME280;32370;41.864;-88.124;2023-04-09T04:57:20;100025.34;;;6.11;52.46
46642;BME280;32370;41.864;-88.124;2023-04-09T04:59:48;100026.09;;;6.04;51.46
46642;BME280;32370;41.864;-88.124;2023-04-09T05:02:16;100029.59;;;6.18;51.09
46642;BME280;32370;41.864;-88.124;2023-04-09T05:04:43;100030.60;;;6.09;51.28
46642;BME280;32370;41.864;-88.124;2023-04-09T05:07:11;100032.11;;;6.07;52.18
46642;BME280;32370;41.864;-88.124;2023-04-09T05:09:39;100028.90;;;5.54;53.43
46642;BME280;32370;41.864;-88.124;2023-04-09T05:12:07;100028.99;;;5.75;53.31
46642;BME280;32370;41.864;-88.124;2023-04-09T05:14:35;100031.44;;;5.79;52.88
46642;BME280;32370;41.864;-88.124;2023-04-09T05:17:03;100031.69;;;5.89;52.07
46642;BME280;32370;41.864;-88.124;2023-04-09T05:19:31;100036.73;;;5.86;51.57
46642;BME280;32370;41.864;-88.124;2023-04-09T05:21:59;100034.77;;;5.84;52.15
46642;BME280;32370;41.864;-88.124;2023-04-09T05:24:27;100030.16;;;5.50;52.88
46642;BME280;32370;41.864;-88.124;2023-04-09T05:26:54;100034.22;;;5.20;54.09
46642;BME280;32370;41.864;-88.124;2023-04-09T05:29:22;100035.68;;;4.93;55.56
46642;BME280;32370;41.864;-88.124;2023-04-09T05:31:51;100038.44;;;5.66;54.52
46642;BME280;32370;41.864;-88.124;2023-04-09T05:34:19;100039.76;;;5.08;54.37
46642;BME280;32370;41.864;-88.124;2023-04-09T05:36:47;100043.83;;;5.20;54.40
46642;BME280;32370;41.864;-88.124;2023-04-09T05:39:15;100039.76;;;4.75;55.69
46642;BME280;32370;41.864;-88.124;2023-04-09T05:41:43;100042.62;;;5.20;56.22
46642;BME280;32370;41.864;-88.124;2023-04-09T05:44:11;100041.77;;;4.98;55.80
46642;BME280;32370;41.864;-88.124;2023-04-09T05:46:39;100045.89;;;4.74;55.83
46642;BME280;32370;41.864;-88.124;2023-04-09T05:49:07;100047.97;;;4.68;55.91
46642;BME280;32370;41.864;-88.124;2023-04-09T05:51:35;100050.15;;;5.19;55.52
46642;BME280;32370;41.864;-88.124;2023-04-09T05:54:03;100051.80;;;5.24;55.37
46642;BME280;32370;41.864;-88.124;2023-04-09T05:56:30;100055.29;;;4.98;56.21
46642;BME280;32370;41.864;-88.124;2023-04-09T05:58:58;100058.66;;;4.99;55.91
46642;BME280;32370;41.864;-88.124;2023-04-09T06:01:26;100059.48;;;4.34;56.35
46642;BME280;32370;41.864;-88.124;2023-04-09T06:03:54;100062.96;;;4.67;56.79
46642;BME280;32370;41.864;-88.124;2023-04-09T06:06:22;100061.58;;;4.64;56.75
46642;BME280;32370;41.864;-88.124;2023-04-09T06:08:50;100062.22;;;4.79;56.17
46642;BME280;32370;41.864;-88.124;2023-04-09T06:11:18;100062.87;;;4.70;56.37
46642;BME280;32370;41.864;-88.124;2023-04-09T06:13:46;100067.82;;;4.72;56.76
46642;BME280;32370;41.864;-88.124;2023-04-09T06:16:14;100071.13;;;4.96;57.39
46642;BME280;32370;41.864;-88.124;2023-04-09T06:18:42;100072.61;;;4.52;58.48
46642;BME280;32370;41.864;-88.124;2023-04-09T06:21:09;100072.09;;;4.17;59.08
46642;BME280;32370;41.864;-88.124;2023-04-09T06:23:38;100065.01;;;4.25;58.50
46642;BME280;32370;41.864;-88.124;2023-04-09T06:26:06;100065.57;;;4.21;58.67
46642;BME280;32370;41.864;-88.124;2023-04-09T06:28:34;100062.81;;;4.29;58.24
46642;BME280;32370;41.864;-88.124;2023-04-09T06:31:02;100063.44;;;4.19;59.32
46642;BME280;32370;41.864;-88.124;2023-04-09T06:33:30;100067.94;;;3.97;61.37
46642;BME280;32370;41.864;-88.124;2023-04-09T06:35:58;100068.99;;;3.73;61.94
46642;BME280;32370;41.864;-88.124;2023-04-09T06:38:26;100070.87;;;3.52;63.00
46642;BME280;32370;41.864;-88.124;2023-04-09T06:40:55;100079.05;;;3.29;64.22
46642;BME280;32370;41.864;-88.124;2023-04-09T06:43:23;100081.17;;;3.59;63.95
46642;BME280;32370;41.864;-88.124;2023-04-09T06:45:51;100080.48;;;3.66;63.33
46642;BME280;32370;41.864;-88.124;2023-04-09T06:48:19;100083.09;;;3.89;63.00
46642;BME280;32370;41.864;-88.124;2023-04-09T06:50:47;100082.96;;;3.87;62.60
46642;BME280;32370;41.864;-88.124;2023-04-09T06:53:15;100086.77;;;3.83;62.45
46642;BME280;32370;41.864;-88.124;2023-04-09T06:55:42;100089.68;;;4.07;61.53
46642;BME280;32370;41.864;-88.124;2023-04-09T06:58:10;100094.89;;;3.67;61.79
46642;BME280;32370;41.864;-88.124;2023-04-09T07:00:38;100093.16;;;3.78;62.16
46642;BME280;32370;41.864;-88.124;2023-04-09T07:03:06;100094.09;;;3.74;62.29
46642;BME280;32370;41.864;-88.124;2023-04-09T07:05:34;100091.38;;;3.45;62.30
46642;BME280;32370;41.864;-88.124;2023-04-09T07:08:02;100091.96;;;3.37;62.74
46642;BME280;32370;41.864;-88.124;2023-04-09T07:10:30;100089.38;;;3.79;62.16
46642;BME280;32370;41.864;-88.124;2023-04-09T07:12:58;100088.86;;;3.75;62.31
46642;BME280;32370;41.864;-88.124;2023-04-09T07:15:26;100089.60;;;3.57;63.25
46642;BME280;32370;41.864;-88.124;2023-04-09T07:17:54;100087.22;;;3.46;63.99
46642;BME280;32370;41.864;-88.124;2023-04-09T07:20:22;100088.80;;;3.52;63.86
46642;BME280;32370;41.864;-88.124;2023-04-09T07:22:50;100087.78;;;3.58;63.59
46642;BME280;32370;41.864;-88.124;2023-04-09T07:25:18;100086.04;;;3.57;63.43
46642;BME280;32370;41.864;-88.124;2023-04-09T07:27:46;100083.64;;;3.22;66.74
46642;BME280;32370;41.864;-88.124;2023-04-09T07:30:14;100085.55;;;3.04;66.86
46642;BME280;32370;41.864;-88.124;2023-04-09T07:32:42;100091.01;;;3.20;67.43
46642;BME280;32370;41.864;-88.124;2023-04-09T07:35:11;100084.86;;;3.15;65.98
46642;BME280;32370;41.864;-88.124;2023-04-09T07:37:38;100087.56;;;2.99;66.29
46642;BME280;32370;41.864;-88.124;2023-04-09T07:40:07;100090.47;;;3.10;66.70
46642;BME280;32370;41.864;-88.124;2023-04-09T07:42:36;100090.93;;;3.23;66.24
46642;BME280;32370;41.864;-88.124;2023-04-09T07:45:05;100089.27;;;3.34;65.58
46642;BME280;32370;41.864;-88.124;2023-04-09T07:47:33;100087.66;;;2.93;65.63
46642;BME280;32370;41.864;-88.124;2023-04-09T07:50:01;100088.15;;;2.80;66.80
46642;BME280;32370;41.864;-88.124;2023-04-09T07:52:29;100089.16;;;3.15;65.78
46642;BME280;32370;41.864;-88.124;2023-04-09T07:54:57;100089.36;;;2.61;67.31
46642;BME280;32370;41.864;-88.124;2023-04-09T07:57:25;100089.91;;;2.76;68.09
46642;BME280;32370;41.864;-88.124;2023-04-09T07:59:53;100089.53;;;2.84;69.12
46642;BME280;32370;41.864;-88.124;2023-04-09T08:02:21;100090.59;;;2.69;68.32
46642;BME280;32370;41.864;-88.124;2023-04-09T08:04:49;100093.11;;;2.50;67.66
46642;BME280;32370;41.864;-88.124;2023-04-09T08:07:17;100093.88;;;2.95;67.73
46642;BME280;32370;41.864;-88.124;2023-04-09T08:09:45;100096.62;;;2.31;68.92
46642;BME280;32370;41.864;-88.124;2023-04-09T08:12:13;100096.71;;;2.57;68.79
46642;BME280;32370;41.864;-88.124;2023-04-09T08:14:41;100099.31;;;2.84;68.34
46642;BME280;32370;41.864;-88.124;2023-04-09T08:17:09;100101.90;;;2.75;68.76
46642;BME280;32370;41.864;-88.124;2023-04-09T08:19:37;100098.43;;;2.43;69.50
46642;BME280;32370;41.864;-88.124;2023-04-09T08:22:05;100098.73;;;2.54;68.72
46642;BME280;32370;41.864;-88.124;2023-04-09T08:24:33;100099.44;;;2.64;69.39
46642;BME280;32370;41.864;-88.124;2023-04-09T08:27:01;100101.93;;;2.25;70.22
46642;BME280;32370;41.864;-88.124;2023-04-09T08:29:29;100103.54;;;2.29;70.14
46642;BME280;32370;41.864;-88.124;2023-04-09T08:31:58;100101.93;;;2.47;70.22
46642;BME280;32370;41.864;-88.124;2023-04-09T08:34:26;100102.27;;;2.31;71.32
46642;BME280;32370;41.864;-88.124;2023-04-09T08:36:54;100106.62;;;2.47;70.14
46642;BME280;32370;41.864;-88.124;2023-04-09T08:39:22;100113.55;;;2.34;69.88
46642;BME280;32370;41.864;-88.124;2023-04-09T08:41:51;100112.62;;;2.43;70.14
46642;BME280;32370;41.864;-88.124;2023-04-09T08:44:19;100113.37;;;2.34;70.81
46642;BME280;32370;41.864;-88.124;2023-04-09T08:46:47;100115.64;;;2.12;70.62
46642;BME280;32370;41.864;-88.124;2023-04-09T08:49:15;100119.90;;;2.46;70.23
46642;BME280;32370;41.864;-88.124;2023-04-09T08:51:46;100120.49;;;2.16;70.17
46642;BME280;32370;41.864;-88.124;2023-04-09T08:54:15;100120.71;;;2.42;69.87
46642;BME280;32370;41.864;-88.124;2023-04-09T08:56:43;100123.15;;;2.39;69.49
46642;BME280;32370;41.864;-88.124;2023-04-09T08:59:14;100122.91;;;2.25;69.97
46642;BME280;32370;41.864;-88.124;2023-04-09T09:01:42;100126.46;;;2.16;70.54
46642;BME280;32370;41.864;-88.124;2023-04-09T09:04:10;100129.38;;;2.16;70.27
46642;BME280;32370;41.864;-88.124;2023-04-09T09:06:39;100135.01;;;2.36;70.49
46642;BME280;32370;41.864;-88.124;2023-04-09T09:09:09;100139.14;;;2.15;70.05
46642;BME280;32370;41.864;-88.124;2023-04-09T09:11:41;100144.25;;;2.11;70.18
46642;BME280;32370;41.864;-88.124;2023-04-09T09:14:10;100139.88;;;1.92;71.90
46642;BME280;32370;41.864;-88.124;2023-04-09T09:16:40;100142.15;;;1.96;72.74
46642;BME280;32370;41.864;-88.124;2023-04-09T09:19:09;100139.45;;;1.99;72.22
46642;BME280;32370;41.864;-88.124;2023-04-09T09:21:38;100141.50;;;1.66;73.02
46642;BME280;32370;41.864;-88.124;2023-04-09T09:24:16;100142.07;;;1.87;73.03
46642;BME280;32370;41.864;-88.124;2023-04-09T09:26:44;100144.40;;;1.80;73.60
46642;BME280;32370;41.864;-88.124;2023-04-09T09:29:12;100144.93;;;1.69;74.67
46642;BME280;32370;41.864;-88.124;2023-04-09T09:31:46;100148.59;;;1.82;73.85
46642;BME280;32370;41.864;-88.124;2023-04-09T09:34:14;100148.80;;;1.86;73.59
46642;BME280;32370;41.864;-88.124;2023-04-09T09:36:43;100150.46;;;1.59;73.74
46642;BME280;32370;41.864;-88.124;2023-04-09T09:39:13;100151.27;;;1.57;74.50
46642;BME280;32370;41.864;-88.124;2023-04-09T09:41:41;100151.95;;;1.41;75.38
46642;BME280;32370;41.864;-88.124;2023-04-09T09:44:11;100154.90;;;1.25;75.05
46642;BME280;32370;41.864;-88.124;2023-04-09T09:46:40;100157.62;;;1.38;75.10
46642;BME280;32370;41.864;-88.124;2023-04-09T09:49:09;100154.16;;;1.44;74.91
46642;BME280;32370;41.864;-88.124;2023-04-09T09:51:38;100160.50;;;1.37;75.32
46642;BME280;32370;41.864;-88.124;2023-04-09T09:54:07;100163.37;;;1.11;75.27
46642;BME280;32370;41.864;-88.124;2023-04-09T09:56:38;100163.48;;;1.25;74.64
46642;BME280;32370;41.864;-88.124;2023-04-09T09:59:12;100163.33;;;1.78;74.12
46642;BME280;32370;41.864;-88.124;2023-04-09T10:01:43;100165.70;;;1.46;73.40
46642;BME280;32370;41.864;-88.124;2023-04-09T10:04:13;100166.75;;;1.50;73.57
46642;BME280;32370;41.864;-88.124;2023-04-09T10:06:44;100170.05;;;1.70;73.65
46642;BME280;32370;41.864;-88.124;2023-04-09T10:09:12;100171.40;;;1.67;73.74
46642;BME280;32370;41.864;-88.124;2023-04-09T10:11:40;100175.50;;;1.08;73.81
46642;BME280;32370;41.864;-88.124;2023-04-09T10:14:09;100175.89;;;1.51;73.76
46642;BME280;32370;41.864;-88.124;2023-04-09T10:16:37;100178.58;;;1.84;72.45
46642;BME280;32370;41.864;-88.124;2023-04-09T10:19:05;100181.23;;;1.75;72.60
46642;BME280;32370;41.864;-88.124;2023-04-09T10:21:37;100185.45;;;1.96;71.47
46642;BME280;32370;41.864;-88.124;2023-04-09T10:24:08;100187.05;;;2.07;71.26
46642;BME280;32370;41.864;-88.124;2023-04-09T10:26:41;100191.94;;;1.40;72.46
46642;BME280;32370;41.864;-88.124;2023-04-09T10:29:10;100197.76;;;1.30;73.79
46642;BME280;32370;41.864;-88.124;2023-04-09T10:31:47;100198.90;;;1.54;74.64
46642;BME280;32370;41.864;-88.124;2023-04-09T10:34:16;100201.42;;;1.66;73.85
46642;BME280;32370;41.864;-88.124;2023-04-09T10:36:44;100202.26;;;1.39;74.84
46642;BME280;32370;41.864;-88.124;2023-04-09T10:39:14;100206.78;;;1.29;74.97
46642;BME280;32370;41.864;-88.124;2023-04-09T10:41:44;100211.54;;;0.97;75.79
46642;BME280;32370;41.864;-88.124;2023-04-09T10:44:22;100211.03;;;1.22;76.05
46642;BME280;32370;41.864;-88.124;2023-04-09T10:46:52;100214.12;;;1.14;76.83
46642;BME280;32370;41.864;-88.124;2023-04-09T10:49:22;100213.23;;;1.12;76.71
46642;BME280;32370;41.864;-88.124;2023-04-09T10:51:52;100214.35;;;1.12;76.86
46642;BME280;32370;41.864;-88.124;2023-04-09T10:54:53;100212.59;;;2.00;75.95
46642;BME280;32370;41.864;-88.124;2023-04-09T10:57:21;100215.73;;;1.10;76.07
46642;BME280;32370;41.864;-88.124;2023-04-09T10:59:51;100222.03;;;1.20;75.46
46642;BME280;32370;41.864;-88.124;2023-04-09T11:03:12;100219.00;;;1.72;76.44
46642;BME280;32370;41.864;-88.124;2023-04-09T11:05:47;100220.78;;;0.83;77.76
46642;BME280;32370;41.864;-88.124;2023-04-09T11:08:18;100224.21;;;0.99;77.06
46642;BME280;32370;41.864;-88.124;2023-04-09T11:10:46;100225.95;;;0.97;76.99
46642;BME280;32370;41.864;-88.124;2023-04-09T11:13:14;100229.41;;;0.83;78.08
46642;BME280;32370;41.864;-88.124;2023-04-09T11:15:44;100229.89;;;0.66;79.25
46642;BME280;32370;41.864;-88.124;2023-04-09T11:18:19;100234.19;;;0.71;78.91
46642;BME280;32370;41.864;-88.124;2023-04-09T11:20:48;100236.17;;;0.92;78.79
46642;BME280;32370;41.864;-88.124;2023-04-09T11:23:17;100237.75;;;0.80;78.02
46642;BME280;32370;41.864;-88.124;2023-04-09T11:25:48;100241.02;;;1.00;77.07
46642;BME280;32370;41.864;-88.124;2023-04-09T11:28:18;100244.59;;;1.17;77.04
46642;BME280;32370;41.864;-88.124;2023-04-09T11:30:48;100245.71;;;0.79;78.23
46642;BME280;32370;41.864;-88.124;2023-04-09T11:33:16;100253.32;;;0.77;78.89
46642;BME280;32370;41.864;-88.124;2023-04-09T11:35:44;100255.34;;;0.67;80.06
46642;BME280;32370;41.864;-88.124;2023-04-09T11:38:12;100256.33;;;0.90;80.01
46642;BME280;32370;41.864;-88.124;2023-04-09T11:40:43;100257.00;;;0.80;81.18
46642;BME280;32370;41.864;-88.124;2023-04-09T11:43:11;100259.26;;;0.86;81.32
46642;BME280;32370;41.864;-88.124;2023-04-09T11:45:39;100261.99;;;0.86;80.78
46642;BME280;32370;41.864;-88.124;2023-04-09T11:48:07;100263.50;;;0.95;80.24
46642;BME280;32370;41.864;-88.124;2023-04-09T11:50:35;100266.89;;;0.85;79.72
46642;BME280;32370;41.864;-88.124;2023-04-09T11:53:16;100269.44;;;1.22;79.23
46642;BME280;32370;41.864;-88.124;2023-04-09T11:55:46;100270.40;;;1.36;78.79
46642;BME280;32370;41.864;-88.124;2023-04-09T11:58:15;100272.21;;;1.32;78.76
46642;BME280;32370;41.864;-88.124;2023-04-09T12:00:42;100276.66;;;1.43;78.93
46642;BME280;32370;41.864;-88.124;2023-04-09T12:03:10;100280.64;;;1.34;78.67
46642;BME280;32370;41.864;-88.124;2023-04-09T12:05:38;100280.97;;;1.59;78.12
46642;BME280;32370;41.864;-88.124;2023-04-09T12:08:11;100283.16;;;1.92;77.97
46642;BME280;32370;41.864;-88.124;2023-04-09T12:10:39;100285.81;;;1.75;77.98
46642;BME280;32370;41.864;-88.124;2023-04-09T12:13:08;100288.42;;;2.16;77.87
46642;BME280;32370;41.864;-88.124;2023-04-09T12:15:38;100291.27;;;2.05;77.65
46642;BME280;32370;41.864;-88.124;2023-04-09T12:18:09;100295.51;;;2.38;77.57
46642;BME280;32370;41.864;-88.124;2023-04-09T12:20:38;100297.63;;;2.38;77.07
46642;BME280;32370;41.864;-88.124;2023-04-09T12:23:07;100299.07;;;2.84;76.84
46642;BME280;32370;41.864;-88.124;2023-04-09T12:25:38;100303.16;;;2.94;76.28
46642;BME280;32370;41.864;-88.124;2023-04-09T12:28:08;100306.32;;;3.39;75.48
46642;BME280;32370;41.864;-88.124;2023-04-09T12:30:35;100306.24;;;3.79;74.28
46642;BME280;32370;41.864;-88.124;2023-04-09T12:33:04;100312.25;;;3.93;70.43
46642;BME280;32370;41.864;-88.124;2023-04-09T12:35:31;100312.16;;;4.42;69.46
46642;BME280;32370;41.864;-88.124;2023-04-09T12:38:00;100318.40;;;5.11;67.33
46642;BME280;32370;41.864;-88.124;2023-04-09T12:40:27;100320.33;;;5.10;66.04
46642;BME280;32370;41.864;-88.124;2023-04-09T12:42:56;100327.66;;;5.31;64.40
46642;BME280;32370;41.864;-88.124;2023-04-09T12:45:24;100338.45;;;5.85;63.69
46642;BME280;32370;41.864;-88.124;2023-04-09T12:47:52;100339.39;;;6.12;62.30
46642;BME280;32370;41.864;-88.124;2023-04-09T12:50:20;100344.10;;;6.44;61.02